Search for airport 
image banner adimage banner ad
image banner ad

VABV - Bhavnagar

Located in Bhavnagar, India

ICAO - VABV, IATA - BHU

Data provided by Airmate  

General information

Coordinates: N21°45'16" E72°11'26"
Elevation is 44 feet MSL.
 
Rated:
View ratings: [VIEW]


View others Airports in Gujarat

Operational data

Open for public use
Current time UTC:
Current local time:
Weather
TAF: TAF VABV 200800Z 2009/2018 15003KT 5000 HZ SCT020 BKN080 TEMPO 2010/2014 3000 -RA HZ FEW015 SCT020 BKN080
View NOTAMs / SUP AIP / TFR affecting this airport [VIEW]
Communications frequencies: [VIEW]

Runways:

RWY identifierQFULength (ft)Width (ft)SurfaceLDA (ft)
0768°6302148ASP
25248°6302148

Airport contact information

Address: Bhavnagar India

Satellite view of VABV